createdAt,value
2022-09-27T00:01:08.480Z,100.00
2022-09-27T00:03:37.801Z,100.00
2022-09-27T00:06:07.997Z,100.00
2022-09-27T00:08:36.550Z,100.00
2022-09-27T00:11:05.335Z,100.00
2022-09-27T00:13:33.217Z,100.00
2022-09-27T00:16:03.189Z,100.00
2022-09-27T00:18:31.238Z,100.00
2022-09-27T00:21:05.959Z,100.00
2022-09-27T00:23:34.336Z,100.00
2022-09-27T00:26:02.421Z,100.00
2022-09-27T00:28:30.914Z,100.00
2022-09-27T00:30:59.176Z,100.00
2022-09-27T00:33:27.280Z,100.00
2022-09-27T00:35:54.997Z,100.00
2022-09-27T00:38:23.983Z,100.00
2022-09-27T00:40:51.682Z,100.00
2022-09-27T00:43:21.389Z,100.00
2022-09-27T00:45:51.205Z,100.00
2022-09-27T00:48:21.375Z,100.00
2022-09-27T00:50:51.131Z,100.00
2022-09-27T00:53:21.451Z,100.00
2022-09-27T00:55:53.261Z,100.00
2022-09-27T00:58:23.071Z,100.00
2022-09-27T01:00:54.155Z,100.00
2022-09-27T01:03:26.635Z,100.00
2022-09-27T01:05:55.015Z,100.00
2022-09-27T01:08:22.608Z,100.00
2022-09-27T01:10:59.098Z,100.00
2022-09-27T01:13:32.629Z,100.00
2022-09-27T01:16:04.480Z,100.00
2022-09-27T01:18:35.874Z,100.00
2022-09-27T01:21:15.464Z,100.00
2022-09-27T01:24:15.771Z,100.00
2022-09-27T01:27:04.471Z,100.00
2022-09-27T01:29:37.412Z,100.00
2022-09-27T01:32:09.424Z,100.00
2022-09-27T01:34:44.928Z,100.00
2022-09-27T01:37:20.784Z,100.00
2022-09-27T01:39:52.203Z,100.00
2022-09-27T01:42:23.762Z,100.00
2022-09-27T01:44:54.108Z,100.00
2022-09-27T01:47:24.535Z,100.00
2022-09-27T01:49:56.736Z,100.00
2022-09-27T01:52:28.586Z,100.00
2022-09-27T01:54:58.712Z,100.00
2022-09-27T01:57:28.717Z,100.00
2022-09-27T02:00:00.334Z,100.00
2022-09-27T02:02:31.049Z,100.00
2022-09-27T02:05:01.435Z,100.00
2022-09-27T02:07:32.955Z,100.00
2022-09-27T02:10:04.901Z,100.00
2022-09-27T02:12:38.199Z,100.00
2022-09-27T02:15:08.320Z,100.00
2022-09-27T02:17:43.468Z,100.00
2022-09-27T02:20:17.116Z,100.00
2022-09-27T02:22:48.869Z,100.00
2022-09-27T02:25:21.839Z,100.00
2022-09-27T02:27:55.943Z,100.00
2022-09-27T02:30:23.603Z,100.00
2022-09-27T02:32:52.901Z,100.00
2022-09-27T02:35:25.041Z,100.00
2022-09-27T02:37:53.661Z,100.00
2022-09-27T02:40:21.471Z,100.00
2022-09-27T02:42:49.238Z,100.00
2022-09-27T02:45:18.595Z,100.00
2022-09-27T02:48:04.970Z,100.00
2022-09-27T02:50:43.051Z,100.00
2022-09-27T02:53:17.962Z,100.00
2022-09-27T02:55:52.241Z,100.00
2022-09-27T02:58:26.696Z,100.00
2022-09-27T03:00:59.387Z,100.00
2022-09-27T03:03:32.739Z,100.00
2022-09-27T03:06:03.626Z,100.00
2022-09-27T03:08:31.375Z,100.00
2022-09-27T03:10:59.017Z,100.00
2022-09-27T03:13:26.752Z,100.00
2022-09-27T03:15:57.109Z,100.00
2022-09-27T03:18:29.972Z,100.00
2022-09-27T03:20:57.590Z,100.00
2022-09-27T03:23:25.246Z,100.00
2022-09-27T03:25:52.877Z,100.00
2022-09-27T03:28:20.592Z,100.00
2022-09-27T03:30:49.235Z,100.00
2022-09-27T03:33:16.888Z,100.00
2022-09-27T03:35:45.887Z,100.00
2022-09-27T03:38:13.711Z,100.00
2022-09-27T03:40:41.456Z,100.00
2022-09-27T03:43:09.136Z,100.00
2022-09-27T03:45:36.773Z,100.00
2022-09-27T03:48:04.385Z,100.00
2022-09-27T03:50:31.991Z,100.00
2022-09-27T03:53:00.960Z,100.00
2022-09-27T03:55:28.679Z,100.00
2022-09-27T03:57:56.259Z,100.00
2022-09-27T04:00:25.236Z,100.00
2022-09-27T04:02:52.989Z,100.00
2022-09-27T04:05:20.632Z,100.00
2022-09-27T04:07:49.350Z,100.00
2022-09-27T04:10:18.326Z,100.00
2022-09-27T04:12:46.244Z,100.00
2022-09-27T04:15:13.988Z,100.00
2022-09-27T04:17:43.066Z,100.00
2022-09-27T04:20:11.135Z,100.00
2022-09-27T04:22:40.464Z,100.00
2022-09-27T04:25:09.233Z,100.00
2022-09-27T04:27:38.695Z,100.00
2022-09-27T04:30:07.753Z,100.00
2022-09-27T04:32:35.344Z,100.00
2022-09-27T04:35:20.608Z,100.00
2022-09-27T04:37:48.431Z,100.00
2022-09-27T04:40:17.045Z,100.00
2022-09-27T04:42:46.052Z,100.00
2022-09-27T04:45:13.882Z,100.00
2022-09-27T04:47:44.000Z,100.00
2022-09-27T04:50:11.862Z,100.00
2022-09-27T04:52:40.244Z,100.00
2022-09-27T04:55:09.615Z,100.00
2022-09-27T04:57:37.905Z,100.00
2022-09-27T05:00:08.508Z,100.00
2022-09-27T05:02:36.571Z,100.00
2022-09-27T05:05:06.601Z,100.00
2022-09-27T05:07:35.499Z,100.00
2022-09-27T05:10:03.115Z,100.00
2022-09-27T05:12:30.731Z,100.00
2022-09-27T05:14:58.364Z,100.00
2022-09-27T05:17:27.432Z,100.00
2022-09-27T05:19:55.051Z,100.00
2022-09-27T05:22:23.055Z,100.00
2022-09-27T05:24:50.672Z,100.00
2022-09-27T05:27:20.194Z,100.00
2022-09-27T05:29:48.091Z,100.00
2022-09-27T05:32:16.635Z,100.00
2022-09-27T05:34:45.620Z,100.00
2022-09-27T05:37:13.228Z,100.00
2022-09-27T05:39:40.907Z,100.00
2022-09-27T05:42:10.279Z,100.00
2022-09-27T05:44:38.577Z,100.00
2022-09-27T05:47:06.328Z,100.00
2022-09-27T05:49:34.371Z,100.00
2022-09-27T05:52:03.560Z,100.00
2022-09-27T05:54:31.879Z,100.00
2022-09-27T05:57:00.313Z,100.00
2022-09-27T05:59:28.594Z,100.00
2022-09-27T06:01:56.402Z,100.00
2022-09-27T06:04:24.102Z,100.00
2022-09-27T06:06:51.713Z,100.00
2022-09-27T06:09:20.660Z,100.00
2022-09-27T06:11:48.293Z,100.00
2022-09-27T06:14:16.186Z,100.00
2022-09-27T06:16:45.599Z,100.00
2022-09-27T06:19:13.299Z,100.00
2022-09-27T06:21:41.083Z,100.00
2022-09-27T06:24:09.047Z,100.00
2022-09-27T06:26:38.115Z,100.00
2022-09-27T06:29:06.012Z,100.00
2022-09-27T06:31:33.577Z,100.00
2022-09-27T06:34:01.378Z,100.00
2022-09-27T06:36:28.988Z,100.00
2022-09-27T06:38:56.606Z,100.00
2022-09-27T06:41:24.296Z,100.00
2022-09-27T06:43:53.450Z,100.00
2022-09-27T06:46:21.155Z,100.00
2022-09-27T06:48:48.787Z,100.00
2022-09-27T06:51:16.461Z,100.00
2022-09-27T06:53:44.075Z,100.00
2022-09-27T06:56:12.045Z,100.00
2022-09-27T06:58:57.179Z,100.00
2022-09-27T07:01:30.200Z,100.00
2022-09-27T07:03:58.800Z,100.00
2022-09-27T07:06:26.776Z,100.00
2022-09-27T07:08:55.024Z,100.00
2022-09-27T07:11:23.297Z,100.00
2022-09-27T07:13:51.748Z,100.00
2022-09-27T07:16:19.535Z,100.00
2022-09-27T07:18:49.152Z,100.00
2022-09-27T07:21:16.966Z,100.00
2022-09-27T07:23:44.571Z,100.00
2022-09-27T07:26:12.619Z,100.00
2022-09-27T07:28:41.594Z,100.00
2022-09-27T07:31:09.627Z,100.00
2022-09-27T07:33:42.364Z,100.00
2022-09-27T07:36:13.726Z,100.00
2022-09-27T07:38:41.347Z,100.00
2022-09-27T07:41:10.055Z,100.00
2022-09-27T07:43:37.681Z,100.00
2022-09-27T07:46:05.306Z,100.00
2022-09-27T07:48:33.170Z,100.00
2022-09-27T07:51:00.946Z,100.00
2022-09-27T07:53:29.895Z,100.00
2022-09-27T07:55:57.485Z,100.00
2022-09-27T07:58:25.086Z,100.00
2022-09-27T08:00:56.178Z,100.00
2022-09-27T08:03:23.802Z,100.00
2022-09-27T08:05:51.407Z,100.00
2022-09-27T08:08:19.048Z,100.00
2022-09-27T08:10:48.006Z,100.00
2022-09-27T08:13:17.881Z,100.00
2022-09-27T08:15:45.526Z,100.00
2022-09-27T08:18:13.111Z,100.00
2022-09-27T08:20:41.090Z,100.00
2022-09-27T08:23:08.794Z,100.00
2022-09-27T08:25:36.522Z,100.00
2022-09-27T08:28:05.710Z,100.00
2022-09-27T08:30:33.394Z,100.00
2022-09-27T08:33:03.380Z,100.00
2022-09-27T08:35:33.771Z,100.00
2022-09-27T08:38:02.735Z,100.00
2022-09-27T08:40:39.158Z,100.00
2022-09-27T08:43:15.094Z,100.00
2022-09-27T08:45:55.694Z,100.00
2022-09-27T08:48:25.152Z,100.00
2022-09-27T08:50:52.883Z,100.00
2022-09-27T08:53:23.251Z,100.00
2022-09-27T08:55:53.637Z,100.00
2022-09-27T08:58:27.140Z,100.00
2022-09-27T09:00:56.326Z,100.00
2022-09-27T09:03:26.064Z,100.00
2022-09-27T09:06:08.364Z,100.00
2022-09-27T09:08:44.390Z,100.00
2022-09-27T09:11:41.836Z,100.00
2022-09-27T09:14:34.008Z,100.00
2022-09-27T09:17:06.007Z,100.00
2022-09-27T09:19:44.439Z,100.00
2022-09-27T09:22:28.706Z,100.00
2022-09-27T09:25:07.220Z,100.00
2022-09-27T09:27:39.887Z,100.00
2022-09-27T09:30:23.146Z,100.00
2022-09-27T09:33:06.359Z,100.00
2022-09-27T09:35:38.364Z,100.00
2022-09-27T09:38:08.153Z,100.00
2022-09-27T09:40:40.394Z,100.00
2022-09-27T09:43:12.360Z,100.00
2022-09-27T09:45:42.994Z,100.00
2022-09-27T09:48:16.572Z,100.00
2022-09-27T09:50:46.897Z,100.00
2022-09-27T09:53:17.580Z,100.00
2022-09-27T09:55:48.938Z,100.00
2022-09-27T09:58:22.743Z,100.00
2022-09-27T10:00:53.157Z,100.00
2022-09-27T10:03:20.880Z,100.00
2022-09-27T10:05:48.548Z,100.00
2022-09-27T10:08:19.723Z,100.00
2022-09-27T10:10:47.756Z,100.00
2022-09-27T10:13:17.395Z,100.00
2022-09-27T10:15:47.468Z,100.00
2022-09-27T10:18:19.119Z,100.00
2022-09-27T10:20:50.607Z,100.00
2022-09-27T10:23:21.036Z,100.00
2022-09-27T10:25:52.164Z,97.28
2022-09-27T10:28:37.128Z,100.00
2022-09-27T10:31:06.335Z,100.00
2022-09-27T10:33:36.235Z,100.00
2022-09-27T10:36:04.418Z,100.00
2022-09-27T10:38:33.778Z,100.00
2022-09-27T10:41:18.276Z,100.00
2022-09-27T10:43:46.356Z,100.00
2022-09-27T10:46:19.044Z,100.00
2022-09-27T10:48:48.032Z,100.00
2022-09-27T10:51:26.621Z,100.00
2022-09-27T10:53:58.610Z,96.12
2022-09-27T10:56:29.713Z,98.52
2022-09-27T10:58:59.099Z,96.75
2022-09-27T11:01:27.318Z,100.00
2022-09-27T11:03:59.155Z,100.00
2022-09-27T11:06:30.711Z,98.29
2022-09-27T11:09:11.921Z,94.71
2022-09-27T11:11:39.540Z,96.77
2022-09-27T11:14:19.339Z,100.00
2022-09-27T11:17:04.258Z,98.17
2022-09-27T11:19:45.714Z,96.81
2022-09-27T11:22:24.877Z,89.91
2022-09-27T11:25:03.606Z,90.42
2022-09-27T11:27:39.640Z,92.47
2022-09-27T11:30:11.158Z,91.39
2022-09-27T11:32:51.795Z,96.04
2022-09-27T11:35:33.258Z,91.88
2022-09-27T11:38:10.183Z,84.83
2022-09-27T11:42:01.199Z,82.53
2022-09-27T11:44:38.737Z,96.15
2022-09-27T11:47:12.901Z,100.00
2022-09-27T11:49:54.541Z,100.00
2022-09-27T11:52:31.087Z,100.00
2022-09-27T11:55:17.668Z,100.00
2022-09-27T11:57:55.134Z,100.00
2022-09-27T12:00:24.518Z,100.00
2022-09-27T12:03:20.915Z,100.00
2022-09-27T12:06:07.211Z,100.00
2022-09-27T12:08:48.441Z,100.00
2022-09-27T12:11:19.419Z,100.00
2022-09-27T12:13:50.287Z,100.00
2022-09-27T12:16:19.258Z,100.00
2022-09-27T12:18:51.262Z,100.00
2022-09-27T12:21:20.040Z,100.00
2022-09-27T12:23:50.249Z,100.00
2022-09-27T12:26:20.166Z,100.00
2022-09-27T12:28:52.455Z,100.00
2022-09-27T12:31:29.812Z,100.00
2022-09-27T12:34:04.505Z,100.00
2022-09-27T12:36:38.405Z,100.00
2022-09-27T12:39:12.078Z,100.00
2022-09-27T12:41:41.740Z,100.00
2022-09-27T12:44:11.699Z,100.00
2022-09-27T12:46:48.459Z,100.00
2022-09-27T12:49:21.640Z,100.00
2022-09-27T12:51:52.498Z,100.00
2022-09-27T12:54:32.322Z,100.00
2022-09-27T12:57:04.652Z,100.00
2022-09-27T12:59:45.660Z,100.00
2022-09-27T13:02:39.378Z,100.00
2022-09-27T13:05:29.323Z,100.00
2022-09-27T13:08:06.258Z,100.00
2022-09-27T13:10:42.588Z,100.00
2022-09-27T13:13:12.850Z,100.00
2022-09-27T13:15:45.141Z,100.00
2022-09-27T13:18:32.257Z,100.00
2022-09-27T13:20:59.755Z,94.99
2022-09-27T13:24:00.489Z,99.62
2022-09-27T13:26:50.329Z,96.78
2022-09-27T13:29:27.128Z,95.50
2022-09-27T13:32:23.955Z,89.82
2022-09-27T13:34:53.623Z,90.80
2022-09-27T13:37:50.535Z,91.12
2022-09-27T13:40:30.585Z,90.07
2022-09-27T13:43:29.472Z,92.74
2022-09-27T13:45:58.348Z,97.55
2022-09-27T13:48:30.300Z,98.43
2022-09-27T13:51:02.034Z,98.57
2022-09-27T13:53:33.201Z,98.65
2022-09-27T13:56:00.747Z,91.64
2022-09-27T13:58:36.777Z,93.61
2022-09-27T14:01:07.195Z,96.68
2022-09-27T14:04:25.690Z,95.59
2022-09-27T14:06:58.043Z,90.10
2022-09-27T14:09:28.596Z,89.21
2022-09-27T14:11:58.795Z,86.71
2022-09-27T14:14:30.166Z,90.73
2022-09-27T14:16:59.956Z,91.52
2022-09-27T14:19:28.024Z,89.63
2022-09-27T14:22:14.180Z,95.71
2022-09-27T14:24:47.576Z,98.22
2022-09-27T14:27:18.126Z,100.00
2022-09-27T14:29:48.839Z,100.00
2022-09-27T14:32:18.560Z,100.00
2022-09-27T14:34:46.486Z,100.00
2022-09-27T14:37:26.278Z,100.00
2022-09-27T14:39:59.352Z,100.00
2022-09-27T14:42:28.592Z,100.00
2022-09-27T14:44:57.376Z,100.00
2022-09-27T14:47:26.087Z,100.00
2022-09-27T14:49:55.069Z,100.00
2022-09-27T14:52:27.767Z,100.00
2022-09-27T14:54:59.902Z,100.00
2022-09-27T14:57:28.603Z,100.00
2022-09-27T14:59:57.609Z,100.00
2022-09-27T15:02:26.371Z,100.00
2022-09-27T15:04:54.682Z,100.00
2022-09-27T15:07:23.939Z,100.00
2022-09-27T15:09:52.442Z,100.00
2022-09-27T15:12:25.292Z,100.00
2022-09-27T15:14:55.087Z,100.00
2022-09-27T15:17:22.977Z,100.00
2022-09-27T15:20:01.119Z,100.00
2022-09-27T15:22:38.416Z,100.00
2022-09-27T15:25:09.016Z,100.00
2022-09-27T15:27:36.544Z,100.00
2022-09-27T15:30:05.587Z,100.00
2022-09-27T15:32:33.084Z,100.00
2022-09-27T15:35:08.079Z,100.00
2022-09-27T15:37:38.547Z,100.00
2022-09-27T15:41:00.894Z,100.00
2022-09-27T15:43:31.413Z,100.00
2022-09-27T15:46:02.875Z,100.00
2022-09-27T15:48:32.067Z,100.00
2022-09-27T15:51:00.573Z,100.00
2022-09-27T15:53:47.205Z,100.00
2022-09-27T15:56:16.512Z,100.00
2022-09-27T15:58:44.808Z,100.00
2022-09-27T16:01:18.208Z,100.00
2022-09-27T16:03:45.863Z,100.00
2022-09-27T16:06:14.728Z,100.00
2022-09-27T16:08:43.720Z,100.00
2022-09-27T16:11:15.596Z,100.00
2022-09-27T16:13:43.440Z,100.00
2022-09-27T16:16:16.972Z,99.80
2022-09-27T16:18:45.068Z,100.00
2022-09-27T16:21:12.780Z,100.00
2022-09-27T16:23:40.383Z,99.30
2022-09-27T16:26:08.416Z,97.23
2022-09-27T16:28:37.342Z,99.03
2022-09-27T16:31:05.703Z,95.69
2022-09-27T16:33:33.890Z,92.11
2022-09-27T16:36:02.297Z,91.94
2022-09-27T16:38:30.234Z,88.75
2022-09-27T16:41:02.468Z,91.60
2022-09-27T16:43:31.389Z,90.14
2022-09-27T16:46:07.160Z,91.31
2022-09-27T16:48:34.839Z,95.64
2022-09-27T16:51:24.979Z,96.29
2022-09-27T16:53:52.492Z,97.71
2022-09-27T16:56:20.359Z,95.66
2022-09-27T16:58:48.533Z,94.63
2022-09-27T17:01:17.517Z,97.24
2022-09-27T17:03:45.709Z,93.87
2022-09-27T17:06:13.226Z,93.57
2022-09-27T17:08:40.720Z,94.33
2022-09-27T17:11:08.526Z,94.66
2022-09-27T17:13:36.008Z,96.04
2022-09-27T17:16:05.959Z,96.82
2022-09-27T17:18:34.872Z,98.44
2022-09-27T17:21:03.390Z,98.38
2022-09-27T17:23:31.066Z,96.62
2022-09-27T17:26:03.943Z,96.11
2022-09-27T17:28:31.475Z,97.38
2022-09-27T17:31:08.641Z,97.56
2022-09-27T17:33:43.295Z,97.86
2022-09-27T17:36:12.280Z,98.10
2022-09-27T17:38:40.322Z,98.63
2022-09-27T17:41:11.347Z,96.71
2022-09-27T17:43:43.561Z,97.86
2022-09-27T17:46:11.481Z,97.61
2022-09-27T17:48:57.959Z,97.77
2022-09-27T17:51:25.472Z,97.48
2022-09-27T17:53:53.206Z,100.00
2022-09-27T17:56:20.718Z,98.68
2022-09-27T17:58:48.828Z,98.56
2022-09-27T18:01:17.480Z,96.96
2022-09-27T18:03:46.563Z,94.53
2022-09-27T18:06:16.112Z,98.91
2022-09-27T18:08:43.763Z,98.47
2022-09-27T18:11:13.142Z,99.30
2022-09-27T18:13:43.863Z,99.50
2022-09-27T18:16:13.207Z,99.34
2022-09-27T18:18:42.286Z,99.47
2022-09-27T18:21:13.983Z,99.78
2022-09-27T18:23:42.055Z,98.77
2022-09-27T18:26:10.366Z,100.00
2022-09-27T18:28:39.289Z,96.35
2022-09-27T18:31:09.022Z,96.11
2022-09-27T18:33:37.528Z,95.93
2022-09-27T18:36:06.871Z,92.34
2022-09-27T18:38:36.207Z,93.60
2022-09-27T18:41:08.033Z,92.94
2022-09-27T18:43:38.865Z,91.87
2022-09-27T18:46:34.028Z,91.22
2022-09-27T18:48:58.399Z,91.78
2022-09-27T18:51:27.310Z,91.13
2022-09-27T18:53:58.336Z,91.45
2022-09-27T18:56:26.843Z,90.99
2022-09-27T18:58:54.960Z,91.22
2022-09-27T19:01:23.171Z,90.76
2022-09-27T19:03:50.835Z,89.43
2022-09-27T19:06:20.030Z,91.31
2022-09-27T19:08:47.967Z,89.93
2022-09-27T19:11:18.311Z,92.54
2022-09-27T19:13:51.562Z,90.03
2022-09-27T19:16:20.813Z,88.57
2022-09-27T19:18:48.843Z,88.96
2022-09-27T19:21:18.057Z,89.92
2022-09-27T19:23:45.959Z,90.58
2022-09-27T19:26:17.932Z,89.60
2022-09-27T19:28:45.978Z,89.78
2022-09-27T19:31:14.670Z,90.96
2022-09-27T19:33:42.667Z,91.64
2022-09-27T19:36:11.586Z,95.29
2022-09-27T19:38:39.570Z,95.54
2022-09-27T19:41:09.139Z,96.66
2022-09-27T19:43:38.131Z,95.47
2022-09-27T19:46:06.021Z,97.88
2022-09-27T19:48:34.619Z,94.35
2022-09-27T19:51:02.408Z,97.87
2022-09-27T19:53:32.298Z,98.66
2022-09-27T19:56:00.611Z,99.55
2022-09-27T19:58:29.456Z,99.53
2022-09-27T20:01:06.341Z,98.61
2022-09-27T20:03:34.551Z,100.00
2022-09-27T20:06:03.128Z,99.22
2022-09-27T20:08:31.164Z,96.88
2022-09-27T20:11:05.921Z,97.52
2022-09-27T20:13:34.514Z,97.33
2022-09-27T20:16:05.056Z,100.00
2022-09-27T20:18:32.659Z,99.88
2022-09-27T20:21:01.392Z,98.13
2022-09-27T20:23:29.494Z,100.00
2022-09-27T20:26:01.327Z,100.00
2022-09-27T20:28:28.993Z,100.00
2022-09-27T20:30:58.186Z,100.00
2022-09-27T20:33:43.688Z,100.00
2022-09-27T20:36:12.804Z,100.00
2022-09-27T20:38:41.211Z,100.00
2022-09-27T20:41:09.218Z,100.00
2022-09-27T20:43:36.871Z,100.00
2022-09-27T20:46:05.930Z,100.00
2022-09-27T20:48:35.107Z,100.00
2022-09-27T20:51:04.922Z,100.00
2022-09-27T20:53:32.867Z,100.00
2022-09-27T20:56:02.624Z,100.00
2022-09-27T20:58:30.914Z,100.00
2022-09-27T21:00:59.024Z,100.00
2022-09-27T21:03:26.553Z,100.00
2022-09-27T21:05:55.940Z,100.00
2022-09-27T21:08:23.970Z,100.00
2022-09-27T21:10:53.754Z,100.00
2022-09-27T21:13:21.614Z,100.00
2022-09-27T21:15:49.243Z,100.00
2022-09-27T21:18:19.452Z,100.00
2022-09-27T21:20:46.945Z,100.00
2022-09-27T21:23:15.811Z,100.00
2022-09-27T21:25:43.759Z,100.00
2022-09-27T21:28:11.699Z,100.00
2022-09-27T21:30:39.200Z,100.00
2022-09-27T21:33:06.688Z,100.00
2022-09-27T21:35:34.191Z,100.00
2022-09-27T21:38:01.725Z,100.00
2022-09-27T21:40:31.389Z,100.00
2022-09-27T21:42:58.923Z,100.00
2022-09-27T21:45:26.432Z,100.00
2022-09-27T21:47:53.913Z,100.00
2022-09-27T21:50:21.448Z,100.00
2022-09-27T21:52:49.896Z,100.00
2022-09-27T21:55:17.420Z,100.00
2022-09-27T21:57:46.247Z,100.00
2022-09-27T22:00:14.703Z,100.00
2022-09-27T22:02:42.817Z,100.00
2022-09-27T22:05:10.690Z,100.00
2022-09-27T22:07:38.543Z,100.00
2022-09-27T22:10:07.149Z,100.00
2022-09-27T22:12:34.647Z,100.00
2022-09-27T22:15:03.586Z,100.00
2022-09-27T22:17:31.118Z,100.00
2022-09-27T22:19:58.612Z,100.00
2022-09-27T22:22:26.120Z,100.00
2022-09-27T22:24:53.972Z,100.00
2022-09-27T22:28:11.659Z,100.00
2022-09-27T22:30:39.184Z,100.00
2022-09-27T22:33:06.683Z,100.00
2022-09-27T22:35:34.399Z,100.00
2022-09-27T22:38:02.113Z,100.00
2022-09-27T22:40:30.403Z,100.00
2022-09-27T22:42:57.920Z,100.00
2022-09-27T22:45:27.304Z,100.00
2022-09-27T22:47:54.788Z,100.00
2022-09-27T22:50:22.390Z,100.00
2022-09-27T22:52:49.871Z,100.00
2022-09-27T22:55:17.531Z,100.00
2022-09-27T22:57:45.036Z,100.00
2022-09-27T23:00:13.783Z,100.00
2022-09-27T23:02:42.632Z,100.00
2022-09-27T23:05:10.338Z,100.00
2022-09-27T23:07:37.939Z,100.00
2022-09-27T23:10:06.815Z,100.00
2022-09-27T23:12:34.770Z,100.00
2022-09-27T23:15:02.292Z,100.00
2022-09-27T23:17:29.775Z,100.00
2022-09-27T23:19:58.614Z,100.00
2022-09-27T23:22:26.115Z,100.00
2022-09-27T23:24:53.599Z,100.00
2022-09-27T23:27:38.852Z,100.00
2022-09-27T23:30:07.125Z,100.00
2022-09-27T23:32:34.647Z,100.00
2022-09-27T23:35:03.510Z,100.00
2022-09-27T23:37:31.087Z,100.00
2022-09-27T23:39:58.614Z,100.00
2022-09-27T23:42:26.952Z,100.00
2022-09-27T23:44:55.704Z,100.00
2022-09-27T23:47:23.264Z,100.00
2022-09-27T23:49:51.134Z,100.00
2022-09-27T23:52:20.004Z,98.61
2022-09-27T23:54:47.847Z,97.30
2022-09-27T23:57:15.372Z,100.00
2022-09-27T23:59:42.930Z,100.00
